Historyczne dane pomiarowe

Dodano dane terminowe – wersja testowa.

Dane z okresu 1951-2019

Wersja bazy: 1.34 [2019-03-16, lista zmian], aktualizacja planowana na 2019-04-15

Dane meteo z obszaru Polski uzyskane na podstawie danych udostępnionych przez Instytut Meteorologii i Gospodarki Wodnej – Państwowy Instytut Badawczy.

 

Wybierz Datę:    

       

TemperaturaWilgotnośćWiatrCiśnienieOpadyŚniegCzas trwania zjawisk
 Stacja t tx tn tng RH VA  wxwx mslp ppp RRR   cm mm wxwxwxwxwxwxwx
1956-11-09 0.4 3.7 -0.8- 75.0- 2.3 2.7---- 0.0------------
1956-11-08 2.1 4.5 0.7- 84.3- 3.7 4.0---- 0.0------------
1956-11-07 3.3 5.6 2.7- 89.5- 8.0 0.3---- 0.3------------
1956-11-06 5.8 8.3 2.7- 76.8- 5.0 12.3---- 6.2------------
1956-11-05 6.4 8.9 5.3- 81.3- 4.3 17.3---- 2.7------------
1956-11-04 4.9 6.0 1.7- 90.3- 8.0 4.3---- 0.7------------
1956-11-03 3.0 5.4 0.5- 81.5- 6.0 1.7---- 0.0------------
1956-11-02 4.0 7.0 2.8- 84.0- 6.3 3.0---- 0.3------------
1956-11-01 4.6 7.0 -2.2- 85.8- 7.7 7.3---- 1.4------------
1956-10-31 -1.0 3.6 -5.0- 75.8- 1.7 4.0---- 0.0------------
1956-10-30 1.2 9.2 0.4- 86.0- 5.7 9.3---- 0.0------------
1956-10-29 5.4 8.7 4.8- 87.0- 5.0 4.7---- 1.0------------
1956-10-28 8.0 9.0 6.9- 98.8- 8.0 4.7---- 1.3------------
1956-10-27 7.8 10.2 4.8- 94.8- 8.0 15.3---- 15.9------------
1956-10-26 6.0 9.5 4.4- 91.3- 5.0 0.7---- 0.0------------
1956-10-25 10.0 14.3 7.6- 81.0- 4.3 5.3---- 0.0------------
1956-10-24 13.1 15.7 10.7- 86.8- 6.7 3.3---- 0.0------------
1956-10-23 11.8 13.6 10.7- 75.8- 8.0 2.7---- 0.0------------
1956-10-22 12.2 14.4 11.6- 79.3- 8.0 5.0---- 0.0------------
1956-10-21 12.6 14.0 10.4- 88.3- 1.7 2.0---- 0.0------------
1956-10-20 10.8 12.2 8.5- 96.0- 8.0 2.3---- 1.0------------
1956-10-19 10.7 13.5 9.8- 90.8- 8.0 4.0---- 0.0------------
1956-10-18 12.5 14.3 10.7- 99.3- 8.0 1.3---- 6.7------------
1956-10-17 11.3 15.0 5.2- 95.3- 3.7 2.3---- 0.8------------
1956-10-16 8.1 14.5 2.6- 82.5- 0.0 0.7---- 0.0------------
1956-10-15 7.9 11.7 5.2- 83.5- 0.0 1.7---- 0.0------------
1956-10-14 11.1 15.5 10.3- 63.8- 2.0 8.0---- 0.0------------
1956-10-13 12.0 15.7 10.3- 81.8- 8.0 12.0---- 0.1------------
1956-10-12 11.4 11.7 7.6- 84.8- 6.7 12.0---- 0.0------------
1956-10-11 10.9 12.5 7.3- 88.5- 6.3 7.7---- 0.0------------
1956-10-10 8.0 10.2 3.4- 75.3- 2.7 3.3---- 0.0------------
1956-10-09 9.7 11.6 6.1- 91.5- 6.0 5.7---- 5.1------------
1956-10-08 8.2 10.0 6.1- 79.0- 4.0 10.0---- 4.0------------
1956-10-07 8.7 9.8 6.2- 81.8- 7.3 15.0---- 0.0------------
1956-10-06 8.1 10.2 5.0- 85.3- 5.0 4.3---- 2.1------------
1956-10-05 6.7 9.7 6.1- 95.5- 6.0 1.7---- 2.4------------
1956-10-04 10.5 14.0 8.6- 82.3- 6.0 2.7---- 0.6------------
1956-10-03 12.0 14.8 9.8- 88.5- 4.3 7.0---- 0.0------------
1956-10-02 15.0 19.0 11.6- 96.5- 7.7 2.3---- 6.8------------
1956-10-01 13.7 17.9 10.1- 98.8- 6.3 2.7---- 8.8------------
1956-09-30 13.4 18.2 10.8- 79.8- 2.0 2.0---- 2.3------------
1956-09-29 15.1 17.3 13.7- 77.0- 6.0 6.7---- 0.0------------
1956-09-28 15.6 17.6 12.8- 86.8- 5.0 5.3---- 2.7------------
1956-09-27 15.1 20.2 11.4- 90.3- 2.7 3.3---- 2.7------------
1956-09-26 15.4 21.5 10.1- 74.5- 0.0 0.3---- 0.0------------
1956-09-25 13.6 21.7 5.3- 76.0- 0.0 4.3---- 0.0------------
1956-09-24 11.4 17.8 6.8- 62.8- 0.0 3.3---- 0.0------------
1956-09-23 13.3 19.3 9.6- 78.0- 1.3 1.7---- 0.0------------
1956-09-22 14.1 20.3 9.3- 74.3- 1.0 4.0---- 0.0------------
1956-09-21 12.0 17.2 6.4- 91.3- 0.0 1.0---- 0.0------------
1956-09-20 10.7 14.7 6.7- 87.8- 2.7 1.0---- 0.0------------
1956-09-19 11.0 17.0 5.7- 86.8- 2.7 0.3---- 0.0------------
1956-09-18 10.8 15.7 7.5- 82.8- 2.0 3.7---- 0.0------------
1956-09-17 13.4 17.2 11.6- 77.3- 3.3 8.7---- 0.0------------
1956-09-16 13.4 15.7 11.6- 88.5- 7.3 12.0---- 0.0------------
1956-09-15 13.4 15.0 11.9- 67.3- 6.3 8.0---- 0.0------------
1956-09-14 12.8 16.8 8.2- 81.5- 4.3 0.7---- 0.0------------
1956-09-13 13.0 13.9 10.5- 81.8- 6.0 16.0---- 1.4------------
1956-09-12 13.2 16.5 10.1- 73.0- 3.7 12.3---- 3.8------------
1956-09-11 15.6 19.3 12.3- 90.3- 4.0 1.7---- 7.3------------
224.1 ms

 

Źródłem pochodzenia danych jest Instytut Meteorologii i Gospodarki Wodnej – Państwowy Instytut Badawczy. Dane Instytutu Meteorologii i Gospodarki Wodnej – Państwowego Instytutu Badawczego zostały przetworzone.

Dane źródłowe można odnaleźć na stronie https://dane.imgw.pl